createdAt,value
2022-09-23T00:00:09.002Z,100505.92
2022-09-23T00:03:16.996Z,100503.39
2022-09-23T00:06:11.757Z,100506.47
2022-09-23T00:08:59.531Z,100506.52
2022-09-23T00:11:47.486Z,100507.98
2022-09-23T00:14:37.362Z,100510.69
2022-09-23T00:17:25.614Z,100508.05
2022-09-23T00:20:14.627Z,100507.83
2022-09-23T00:23:02.902Z,100506.14
2022-09-23T00:25:59.374Z,100498.52
2022-09-23T00:28:49.137Z,100501.17
2022-09-23T00:31:39.023Z,100499.61
2022-09-23T00:34:26.947Z,100497.50
2022-09-23T00:37:16.832Z,100495.54
2022-09-23T00:40:05.412Z,100498.38
2022-09-23T00:42:53.004Z,100501.90
2022-09-23T00:45:45.654Z,100499.16
2022-09-23T00:48:35.716Z,100496.47
2022-09-23T00:51:28.275Z,100493.38
2022-09-23T00:54:18.172Z,100491.55
2022-09-23T00:57:07.112Z,100490.88
2022-09-23T00:59:55.278Z,100486.11
2022-09-23T01:02:43.226Z,100480.78
2022-09-23T01:05:33.702Z,100474.04
2022-09-23T01:08:23.773Z,100474.86
2022-09-23T01:11:48.706Z,100475.42
2022-09-23T01:14:56.212Z,100478.20
2022-09-23T01:18:03.067Z,100476.57
2022-09-23T01:21:18.833Z,100473.33
2022-09-23T01:24:48.538Z,100472.39
2022-09-23T01:27:56.577Z,100472.45
2022-09-23T01:31:10.402Z,100470.09
2022-09-23T01:34:26.731Z,100470.42
2022-09-23T01:37:41.207Z,100468.48
2022-09-23T01:41:13.777Z,100466.58
2022-09-23T01:44:12.671Z,100463.96
2022-09-23T01:47:27.455Z,100460.89
2022-09-23T01:50:39.782Z,100460.19
2022-09-23T01:53:33.561Z,100462.39
2022-09-23T01:56:33.669Z,100464.15
2022-09-23T01:59:38.437Z,100465.25
2022-09-23T02:02:36.516Z,100467.73
2022-09-23T02:05:37.709Z,100468.06
2022-09-23T02:08:53.393Z,100466.14
2022-09-23T02:11:46.323Z,100459.96
2022-09-23T02:15:11.955Z,100460.96
2022-09-23T02:18:13.191Z,100463.10
2022-09-23T02:21:07.496Z,100459.09
2022-09-23T02:24:09.285Z,100459.67
2022-09-23T02:27:40.566Z,100461.61
2022-09-23T02:30:40.044Z,100458.56
2022-09-23T02:33:39.361Z,100458.45
2022-09-23T02:36:54.414Z,100456.47
2022-09-23T02:40:20.737Z,100451.35
2022-09-23T02:43:19.946Z,100451.84
2022-09-23T02:46:08.247Z,100451.06
2022-09-23T02:49:04.294Z,100448.24
2022-09-23T02:51:54.733Z,100450.08
2022-09-23T02:54:42.940Z,100447.98
2022-09-23T02:57:31.583Z,100447.36
2022-09-23T03:00:20.213Z,100444.77
2022-09-23T03:03:49.029Z,100445.02
2022-09-23T03:06:57.882Z,100439.11
2022-09-23T03:10:10.678Z,100436.34
2022-09-23T03:13:30.130Z,100426.69
2022-09-23T03:17:04.370Z,100421.79
2022-09-23T03:20:38.760Z,100418.67
2022-09-23T03:23:37.456Z,100416.16
2022-09-23T03:26:33.594Z,100411.29
2022-09-23T03:29:23.625Z,100409.91
2022-09-23T03:32:14.860Z,100412.42
2022-09-23T03:35:06.161Z,100408.23
2022-09-23T03:38:12.421Z,100405.13
2022-09-23T03:41:04.306Z,100406.00
2022-09-23T03:43:53.535Z,100402.44
2022-09-23T03:46:44.284Z,100400.83
2022-09-23T03:49:40.016Z,100398.84
2022-09-23T03:52:28.706Z,100397.26
2022-09-23T03:55:19.461Z,100396.61
2022-09-23T03:58:08.537Z,100391.81
2022-09-23T04:00:58.984Z,100389.77
2022-09-23T04:03:46.962Z,100388.81
2022-09-23T04:06:35.856Z,100387.34
2022-09-23T04:09:24.312Z,100384.91
2022-09-23T04:12:23.991Z,100381.00
2022-09-23T04:15:12.253Z,100381.06
2022-09-23T04:18:00.171Z,100382.55
2022-09-23T04:20:49.359Z,100384.77
2022-09-23T04:23:37.896Z,100383.39
2022-09-23T04:26:25.935Z,100380.13
2022-09-23T04:29:14.287Z,100382.80
2022-09-23T04:32:02.814Z,100377.41
2022-09-23T04:34:50.629Z,100374.88
2022-09-23T04:37:38.522Z,100374.68
2022-09-23T04:40:29.578Z,100373.36
2022-09-23T04:43:23.581Z,100371.73
2022-09-23T04:46:15.338Z,100366.79
2022-09-23T04:49:03.504Z,100369.27
2022-09-23T04:51:51.731Z,100365.69
2022-09-23T04:54:41.925Z,100365.83
2022-09-23T04:57:30.154Z,100369.96
2022-09-23T05:00:18.402Z,100372.30
2022-09-23T05:03:07.484Z,100374.10
2022-09-23T05:06:00.039Z,100370.41
2022-09-23T05:08:51.580Z,100369.14
2022-09-23T05:11:39.726Z,100370.96
2022-09-23T05:14:27.614Z,100367.30
2022-09-23T05:17:15.830Z,100362.41
2022-09-23T05:20:05.187Z,100365.20
2022-09-23T05:22:55.745Z,100364.69
2022-09-23T05:25:45.876Z,100368.63
2022-09-23T05:28:36.145Z,100367.80
2022-09-23T05:31:27.507Z,100367.58
2022-09-23T05:34:16.079Z,100365.73
2022-09-23T05:37:04.639Z,100360.91
2022-09-23T05:39:52.832Z,100364.30
2022-09-23T05:42:41.400Z,100359.17
2022-09-23T05:45:32.368Z,100360.79
2022-09-23T05:48:20.785Z,100353.06
2022-09-23T05:51:27.592Z,100357.06
2022-09-23T05:54:19.546Z,100353.93
2022-09-23T05:57:07.457Z,100353.77
2022-09-23T05:59:55.398Z,100351.67
2022-09-23T06:02:43.392Z,100355.11
2022-09-23T06:05:31.670Z,100358.38
2022-09-23T06:08:19.792Z,100355.41
2022-09-23T06:11:27.234Z,100354.58
2022-09-23T06:14:15.159Z,100354.86
2022-09-23T06:17:03.222Z,100351.90
2022-09-23T06:19:54.029Z,100354.73
2022-09-23T06:22:41.940Z,100351.92
2022-09-23T06:25:30.521Z,100350.25
2022-09-23T06:28:18.395Z,100350.98
2022-09-23T06:31:17.184Z,100352.15
2022-09-23T06:34:11.837Z,100351.89
2022-09-23T06:37:08.532Z,100347.73
2022-09-23T06:40:00.118Z,100348.02
2022-09-23T06:42:52.400Z,100349.66
2022-09-23T06:45:40.293Z,100347.27
2022-09-23T06:48:29.109Z,100339.10
2022-09-23T06:51:21.713Z,100328.57
2022-09-23T06:54:09.749Z,100318.02
2022-09-23T06:56:58.230Z,100308.36
2022-09-23T06:59:46.435Z,100298.13
2022-09-23T07:02:34.612Z,100291.29
2022-09-23T07:05:23.010Z,100295.60
2022-09-23T07:08:13.095Z,100295.68
2022-09-23T07:11:06.122Z,100296.46
2022-09-23T07:13:54.167Z,100295.92
2022-09-23T07:16:42.052Z,100293.70
2022-09-23T07:19:30.394Z,100290.25
2022-09-23T07:22:19.224Z,100286.16
2022-09-23T07:25:07.686Z,100279.09
2022-09-23T07:27:56.788Z,100273.41
2022-09-23T07:30:57.080Z,100273.36
2022-09-23T07:33:47.825Z,100280.11
2022-09-23T07:36:37.747Z,100284.38
2022-09-23T07:39:26.368Z,100282.52
2022-09-23T07:42:14.457Z,100283.58
2022-09-23T07:45:02.940Z,100281.77
2022-09-23T07:47:50.817Z,100283.42
2022-09-23T07:50:40.547Z,100280.31
2022-09-23T07:53:30.851Z,100277.75
2022-09-23T07:56:20.731Z,100272.95
2022-09-23T07:59:15.634Z,100279.86
2022-09-23T08:02:03.595Z,100276.76
2022-09-23T08:04:51.722Z,100276.92
2022-09-23T08:07:39.883Z,100276.57
2022-09-23T08:10:28.044Z,100273.73
2022-09-23T08:13:16.197Z,100270.92
2022-09-23T08:16:04.869Z,100270.55
2022-09-23T08:18:53.368Z,100264.87
2022-09-23T08:21:41.990Z,100257.63
2022-09-23T08:24:32.460Z,100262.09
2022-09-23T08:27:20.262Z,100270.23
2022-09-23T08:30:09.712Z,100266.17
2022-09-23T08:32:57.964Z,100263.44
2022-09-23T08:35:45.830Z,100260.91
2022-09-23T08:38:34.099Z,100263.56
2022-09-23T08:41:37.152Z,100256.55
2022-09-23T08:44:54.538Z,100259.50
2022-09-23T08:48:10.748Z,100261.27
2022-09-23T08:51:11.384Z,100260.80
2022-09-23T08:54:00.263Z,100261.61
2022-09-23T08:56:52.629Z,100258.02
2022-09-23T08:59:44.293Z,100259.83
2022-09-23T09:02:35.540Z,100261.58
2022-09-23T09:05:28.655Z,100263.92
2022-09-23T09:08:25.506Z,100262.02
2022-09-23T09:11:16.704Z,100260.50
2022-09-23T09:14:40.303Z,100266.35
2022-09-23T09:18:22.966Z,100264.14
2022-09-23T09:21:16.178Z,100262.36
2022-09-23T09:24:37.260Z,100265.40
2022-09-23T09:27:25.348Z,100262.22
2022-09-23T09:30:14.803Z,100272.10
2022-09-23T09:33:18.049Z,100271.80
2022-09-23T09:36:43.563Z,100269.44
2022-09-23T09:39:32.092Z,100272.67
2022-09-23T09:42:27.187Z,100270.33
2022-09-23T09:46:02.377Z,100272.78
2022-09-23T09:48:59.894Z,100273.05
2022-09-23T09:51:47.811Z,100270.52
2022-09-23T09:54:35.503Z,100269.14
2022-09-23T09:57:37.907Z,100267.45
2022-09-23T10:00:26.585Z,100266.65
2022-09-23T10:03:14.584Z,100258.75
2022-09-23T10:06:22.844Z,100255.83
2022-09-23T10:09:15.660Z,100245.44
2022-09-23T10:12:27.041Z,100243.48
2022-09-23T10:15:44.978Z,100240.60
2022-09-23T10:18:39.381Z,100232.05
2022-09-23T10:21:37.029Z,100234.54
2022-09-23T10:24:31.199Z,100232.76
2022-09-23T10:27:31.528Z,100234.61
2022-09-23T10:30:28.563Z,100236.34
2022-09-23T10:33:28.058Z,100235.50
2022-09-23T10:36:18.556Z,100233.79
2022-09-23T10:39:28.115Z,100229.04
2022-09-23T10:43:21.270Z,100236.89
2022-09-23T10:46:46.003Z,100224.70
2022-09-23T10:49:44.049Z,100220.66
2022-09-23T10:53:02.699Z,100221.39
2022-09-23T10:56:22.689Z,100215.89
2022-09-23T10:59:41.127Z,100216.73
2022-09-23T11:03:24.665Z,100217.06
2022-09-23T11:06:18.676Z,100214.40
2022-09-23T11:10:18.367Z,100212.48
2022-09-23T11:13:45.008Z,100209.16
2022-09-23T11:16:49.358Z,100204.13
2022-09-23T11:20:22.385Z,100201.77
2022-09-23T11:23:40.937Z,100193.11
2022-09-23T11:27:06.445Z,100191.13
2022-09-23T11:30:22.503Z,100190.77
2022-09-23T11:33:14.340Z,100187.09
2022-09-23T11:36:40.791Z,100187.08
2022-09-23T11:39:38.307Z,100178.36
2022-09-23T11:42:33.447Z,100177.59
2022-09-23T11:45:34.224Z,100178.23
2022-09-23T11:48:57.360Z,100174.58
2022-09-23T11:51:57.321Z,100179.73
2022-09-23T11:55:21.182Z,100179.48
2022-09-23T11:58:25.552Z,100175.95
2022-09-23T12:01:45.917Z,100175.23
2022-09-23T12:04:55.198Z,100170.34
2022-09-23T12:08:31.012Z,100161.76
2022-09-23T12:11:46.871Z,100161.46
2022-09-23T12:14:59.590Z,100158.48
2022-09-23T12:18:27.944Z,100153.16
2022-09-23T12:21:49.183Z,100152.20
2022-09-23T12:24:59.888Z,100144.91
2022-09-23T12:27:51.726Z,100147.77
2022-09-23T12:30:42.000Z,100146.77
2022-09-23T12:33:33.853Z,100143.86
2022-09-23T12:36:36.867Z,100144.38
2022-09-23T12:39:37.384Z,100143.48
2022-09-23T12:42:30.776Z,100142.69
2022-09-23T12:45:35.137Z,100143.48
2022-09-23T12:48:44.472Z,100146.32
2022-09-23T12:51:34.960Z,100146.98
2022-09-23T12:54:24.902Z,100146.29
2022-09-23T12:57:35.219Z,100144.52
2022-09-23T13:00:29.843Z,100142.35
2022-09-23T13:03:41.204Z,100137.08
2022-09-23T13:06:42.131Z,100134.91
2022-09-23T13:09:37.817Z,100132.83
2022-09-23T13:12:36.384Z,100129.00
2022-09-23T13:15:36.740Z,100133.52
2022-09-23T13:18:54.797Z,100132.73
2022-09-23T13:21:42.896Z,100126.18
2022-09-23T13:24:54.910Z,100124.92
2022-09-23T13:27:47.819Z,100124.33
2022-09-23T13:30:36.345Z,100122.59
2022-09-23T13:34:04.660Z,100122.84
2022-09-23T13:36:53.767Z,100125.79
2022-09-23T13:39:44.195Z,100127.30
2022-09-23T13:42:40.916Z,100123.61
2022-09-23T13:45:34.373Z,100119.39
2022-09-23T13:48:25.702Z,100115.01
2022-09-23T13:51:39.861Z,100112.50
2022-09-23T13:54:52.730Z,100113.20
2022-09-23T13:57:43.486Z,100112.41
2022-09-23T14:00:37.174Z,100109.63
2022-09-23T14:03:37.254Z,100110.00
2022-09-23T14:06:27.587Z,100107.02
2022-09-23T14:09:23.974Z,100102.77
2022-09-23T14:12:12.597Z,100104.48
2022-09-23T14:15:00.299Z,100098.56
2022-09-23T14:18:06.502Z,100098.89
2022-09-23T14:20:54.360Z,100093.26
2022-09-23T14:23:45.564Z,100090.91
2022-09-23T14:26:39.755Z,100093.27
2022-09-23T14:29:32.858Z,100091.80
2022-09-23T14:32:25.940Z,100085.70
2022-09-23T14:35:27.631Z,100083.27
2022-09-23T14:38:49.406Z,100082.44
2022-09-23T14:41:44.635Z,100075.67
2022-09-23T14:44:35.728Z,100070.26
2022-09-23T14:47:25.279Z,100071.10
2022-09-23T14:50:39.785Z,100068.49
2022-09-23T14:53:48.313Z,100070.65
2022-09-23T14:56:43.907Z,100066.09
2022-09-23T14:59:37.227Z,100071.19
2022-09-23T15:02:39.456Z,100070.74
2022-09-23T15:05:51.088Z,100067.46
2022-09-23T15:08:42.502Z,100065.50
2022-09-23T15:11:31.005Z,100067.90
2022-09-23T15:14:37.226Z,100064.39
2022-09-23T15:17:36.666Z,100070.14
2022-09-23T15:20:27.737Z,100066.33
2022-09-23T15:23:55.133Z,100064.00
2022-09-23T15:26:52.619Z,100061.25
2022-09-23T15:29:40.455Z,100059.76
2022-09-23T15:32:28.230Z,100062.13
2022-09-23T15:35:23.867Z,100064.30
2022-09-23T15:38:12.623Z,100061.85
2022-09-23T15:41:00.595Z,100060.21
2022-09-23T15:43:49.100Z,100059.11
2022-09-23T15:46:38.572Z,100058.02
2022-09-23T15:49:36.536Z,100058.42
2022-09-23T15:52:24.924Z,100057.95
2022-09-23T15:55:22.098Z,100058.63
2022-09-23T15:58:10.143Z,100062.10
2022-09-23T16:00:58.217Z,100060.11
2022-09-23T16:03:46.062Z,100060.35
2022-09-23T16:06:36.273Z,100066.41
2022-09-23T16:09:24.438Z,100072.26
2022-09-23T16:12:12.824Z,100075.83
2022-09-23T16:15:00.648Z,100072.44
2022-09-23T16:17:49.125Z,100075.17
2022-09-23T16:20:42.074Z,100074.54
2022-09-23T16:23:37.829Z,100075.02
2022-09-23T16:26:35.302Z,100073.91
2022-09-23T16:29:23.408Z,100074.35
2022-09-23T16:32:11.097Z,100073.63
2022-09-23T16:34:59.362Z,100076.30
2022-09-23T16:37:48.393Z,100077.68
2022-09-23T16:40:36.569Z,100078.82
2022-09-23T16:43:24.506Z,100075.91
2022-09-23T16:46:16.623Z,100076.80
2022-09-23T16:49:05.174Z,100076.61
2022-09-23T16:51:53.801Z,100075.60
2022-09-23T16:54:54.447Z,100074.11
2022-09-23T16:57:42.712Z,100073.68
2022-09-23T17:00:49.576Z,100070.17
2022-09-23T17:03:41.108Z,100066.64
2022-09-23T17:06:29.933Z,100066.51
2022-09-23T17:09:26.826Z,100069.21
2022-09-23T17:12:28.154Z,100068.69
2022-09-23T17:15:16.166Z,100064.78
2022-09-23T17:18:06.555Z,100063.86
2022-09-23T17:21:06.300Z,100063.86
2022-09-23T17:23:56.764Z,100063.32
2022-09-23T17:26:49.370Z,100060.05
2022-09-23T17:29:40.538Z,100060.70
2022-09-23T17:32:28.497Z,100059.46
2022-09-23T17:35:16.648Z,100062.89
2022-09-23T17:38:04.955Z,100067.02
2022-09-23T17:40:56.309Z,100068.27
2022-09-23T17:43:47.002Z,100068.52
2022-09-23T17:46:34.926Z,100067.34
2022-09-23T17:49:24.408Z,100065.80
2022-09-23T17:52:12.292Z,100066.23
2022-09-23T17:55:00.452Z,100073.59
2022-09-23T17:57:51.678Z,100074.53
2022-09-23T18:00:39.400Z,100069.52
2022-09-23T18:03:29.589Z,100071.65
2022-09-23T18:06:23.375Z,100071.69
2022-09-23T18:09:11.744Z,100071.14
2022-09-23T18:11:59.573Z,100073.24
2022-09-23T18:14:49.000Z,100073.90
2022-09-23T18:17:37.265Z,100073.15
2022-09-23T18:20:25.312Z,100068.85
2022-09-23T18:23:13.526Z,100068.71
2022-09-23T18:26:01.104Z,100069.52
2022-09-23T18:28:53.775Z,100069.88
2022-09-23T18:31:44.458Z,100066.61
2022-09-23T18:34:32.705Z,100072.63
2022-09-23T18:37:21.031Z,100070.02
2022-09-23T18:40:14.652Z,100069.89
2022-09-23T18:43:03.626Z,100074.52
2022-09-23T18:46:04.073Z,100073.64
2022-09-23T18:49:11.471Z,100068.89
2022-09-23T18:51:59.819Z,100072.90
2022-09-23T18:54:51.780Z,100075.91
2022-09-23T18:57:42.448Z,100078.41
2022-09-23T19:00:31.186Z,100080.43
2022-09-23T19:03:19.408Z,100073.50
2022-09-23T19:06:17.171Z,100074.84
2022-09-23T19:09:13.550Z,100072.42
2022-09-23T19:12:03.830Z,100077.66
2022-09-23T19:14:53.492Z,100077.23
2022-09-23T19:17:44.463Z,100073.08
2022-09-23T19:20:35.210Z,100078.26
2022-09-23T19:23:23.068Z,100076.09
2022-09-23T19:26:14.042Z,100075.97
2022-09-23T19:29:04.526Z,100074.48
2022-09-23T19:31:52.742Z,100072.91
2022-09-23T19:34:40.726Z,100072.19
2022-09-23T19:37:29.109Z,100078.79
2022-09-23T19:40:17.396Z,100072.79
2022-09-23T19:43:13.265Z,100069.63
2022-09-23T19:46:01.330Z,100073.02
2022-09-23T19:48:49.401Z,100072.33
2022-09-23T19:51:41.458Z,100073.54
2022-09-23T19:54:29.778Z,100075.34
2022-09-23T19:57:17.917Z,100072.98
2022-09-23T20:00:06.411Z,100071.83
2022-09-23T20:03:00.598Z,100069.70
2022-09-23T20:05:57.135Z,100063.82
2022-09-23T20:08:46.587Z,100068.07
2022-09-23T20:11:37.119Z,100062.02
2022-09-23T20:14:27.323Z,100059.69
2022-09-23T20:17:17.754Z,100060.77
2022-09-23T20:20:06.184Z,100060.46
2022-09-23T20:22:55.461Z,100056.84
2022-09-23T20:26:01.999Z,100052.86
2022-09-23T20:28:50.131Z,100050.76
2022-09-23T20:31:40.665Z,100048.88
2022-09-23T20:34:30.077Z,100051.52
2022-09-23T20:37:20.596Z,100047.90
2022-09-23T20:40:12.068Z,100043.55
2022-09-23T20:43:00.196Z,100043.09
2022-09-23T20:45:52.944Z,100040.27
2022-09-23T20:48:41.607Z,100037.27
2022-09-23T20:51:29.988Z,100038.30
2022-09-23T20:54:19.546Z,100038.48
2022-09-23T20:57:13.127Z,100040.67
2022-09-23T21:00:02.271Z,100039.52
2022-09-23T21:02:52.723Z,100038.93
2022-09-23T21:05:42.363Z,100040.23
2022-09-23T21:08:33.576Z,100039.17
2022-09-23T21:11:22.719Z,100034.08
2022-09-23T21:14:11.108Z,100035.32
2022-09-23T21:16:59.670Z,100035.73
2022-09-23T21:19:47.905Z,100036.94
2022-09-23T21:22:36.434Z,100036.77
2022-09-23T21:25:29.034Z,100038.24
2022-09-23T21:28:20.040Z,100043.84
2022-09-23T21:31:12.292Z,100041.80
2022-09-23T21:34:11.465Z,100040.17
2022-09-23T21:37:02.258Z,100042.90
2022-09-23T21:40:10.338Z,100039.42
2022-09-23T21:43:01.561Z,100038.89
2022-09-23T21:45:50.000Z,100038.21
2022-09-23T21:48:41.575Z,100039.30
2022-09-23T21:51:59.765Z,100034.36
2022-09-23T21:54:47.777Z,100036.73
2022-09-23T21:57:35.660Z,100036.63
2022-09-23T22:00:23.897Z,100033.04
2022-09-23T22:03:12.846Z,100032.27
2022-09-23T22:06:12.263Z,100034.55
2022-09-23T22:09:03.903Z,100032.77
2022-09-23T22:12:11.977Z,100029.36
2022-09-23T22:14:59.671Z,100026.59
2022-09-23T22:17:48.352Z,100029.30
2022-09-23T22:20:37.105Z,100030.27
2022-09-23T22:23:25.752Z,100030.90
2022-09-23T22:26:13.548Z,100037.42
2022-09-23T22:29:20.493Z,100039.46
2022-09-23T22:32:30.362Z,100037.29
2022-09-23T22:35:19.028Z,100038.05
2022-09-23T22:38:06.936Z,100036.54
2022-09-23T22:40:55.129Z,100035.17
2022-09-23T22:43:43.079Z,100035.75
2022-09-23T22:46:34.771Z,100032.45
2022-09-23T22:49:22.966Z,100026.88
2022-09-23T22:52:12.656Z,100027.10
2022-09-23T22:55:01.232Z,100026.63
2022-09-23T22:57:51.741Z,100021.52
2022-09-23T23:00:39.682Z,100017.05
2022-09-23T23:03:27.899Z,100014.51
2022-09-23T23:06:16.077Z,100013.21
2022-09-23T23:09:15.380Z,100012.92
2022-09-23T23:12:03.412Z,100011.80
2022-09-23T23:14:51.351Z,100014.61
2022-09-23T23:17:41.408Z,100010.62
2022-09-23T23:20:32.330Z,100011.04
2022-09-23T23:23:20.138Z,100005.80
2022-09-23T23:26:21.211Z,100005.40
2022-09-23T23:29:12.173Z,100007.14
2022-09-23T23:32:00.256Z,100001.59
2022-09-23T23:34:48.243Z,100002.02
2022-09-23T23:37:36.379Z,100001.80
2022-09-23T23:40:24.351Z,99996.13
2022-09-23T23:43:12.313Z,100001.08
2022-09-23T23:46:01.728Z,100002.20
2022-09-23T23:48:49.546Z,100001.05
2022-09-23T23:51:37.562Z,100000.15
2022-09-23T23:54:25.479Z,99995.55
2022-09-23T23:57:13.647Z,99987.77
